»·PEaware :: AAL122 KEUG-KRNO

AAL122 :: KEUG-KRNO

FLIGHT INFORMATION

Flight Status: Arrived
Operator:
American Airlines
More flights by this operator :: More flights under this callsign
Pilot: Ben L. (6391)
Aircraft: AIRBUS A321
(A321)
More flights by this aircraft type
Origin: KEUG Mahlon Sweet
United States
Destination: KRNO Reno/Tahoe Intl
United States
More flights between these airports :: More routes between these airports
Route: +EUG1 LMT HARRTT EELZA2
File this flight plan on PilotEdge
Remarks:
Altitude:
(Current/Filed)
33,000ft
Speed:
(Current/Filed)
450kts
Departed: 10-Jul-20 04:09 PM
Arrived: 10-Jul-20 05:05 PM
Distance/Time
Traveled:
317nm/0:56
Distance/Time
To Go:
Arrived

Flight Plot

Page will automatically refresh every two minutes.

Flight plan parsing failed; only flown route is shown


Map Options




Map Legend


Flown Route
Filed Route
Departure Airport
Arrival Airport
Navaid (VOR, NDB)
Fix

Horizontal Profiles

Position Reports

Time Latitude Longitude Heading Altitude Ground
Speed
10-Jul-20 15:49 44.119842 -123.214591 99 369ft 0kts
10-Jul-20 15:49 44.119842 -123.214591 99 369ft 0kts
10-Jul-20 15:50 44.119842 -123.214591 99 369ft 0kts
10-Jul-20 15:52 44.119842 -123.214591 99 369ft 0kts
10-Jul-20 15:52 44.119842 -123.214591 99 369ft 0kts
10-Jul-20 15:53 44.119842 -123.214591 99 369ft 0kts
10-Jul-20 15:54 44.119842 -123.214591 99 369ft 0kts
10-Jul-20 15:55 44.119842 -123.214591 99 369ft 0kts
10-Jul-20 15:56 44.119842 -123.214591 99 369ft 0kts
10-Jul-20 15:57 44.119842 -123.214591 99 369ft 0kts
10-Jul-20 15:58 44.119842 -123.214591 99 369ft 0kts
10-Jul-20 15:59 44.119842 -123.214591 99 369ft 0kts
10-Jul-20 16:00 44.119842 -123.214591 99 369ft 0kts
10-Jul-20 16:01 44.119879 -123.214909 99 369ft 2kts
10-Jul-20 16:02 44.119893 -123.215651 56 369ft 2kts
10-Jul-20 16:03 44.119763 -123.215815 33 369ft 0kts
10-Jul-20 16:04 44.119763 -123.215815 33 369ft 0kts
10-Jul-20 16:05 44.120987 -123.214962 24 369ft 14kts
10-Jul-20 16:06 44.125629 -123.217092 358 369ft 24kts
10-Jul-20 16:07 44.132855 -123.217215 0 369ft 25kts
10-Jul-20 16:08 44.128460 -123.219032 179 369ft 111kts
10-Jul-20 16:09 44.082091 -123.216446 178 2162ft 184kts
10-Jul-20 16:10 44.022573 -123.211858 178 3926ft 250kts
10-Jul-20 16:11 43.954578 -123.165848 151 6840ft 284kts
10-Jul-20 16:12 43.887442 -123.110463 151 8987ft 291kts
10-Jul-20 16:13 43.818156 -123.053668 151 8998ft 289kts
10-Jul-20 16:14 43.747776 -122.995930 151 10893ft 304kts
10-Jul-20 16:15 43.666624 -122.929596 151 12193ft 372kts
10-Jul-20 16:16 43.575415 -122.855092 151 14900ft 389kts
10-Jul-20 16:17 43.480407 -122.777843 151 17280ft 406kts
10-Jul-20 16:18 43.381898 -122.698066 151 19473ft 420kts
10-Jul-20 16:19 43.279598 -122.615581 151 21459ft 433kts
10-Jul-20 16:20 43.174408 -122.531124 151 23221ft 445kts
10-Jul-20 16:21 43.066696 -122.444962 151 24739ft 456kts
10-Jul-20 16:22 42.955604 -122.356227 153 26099ft 467kts
10-Jul-20 16:23 42.843834 -122.267356 155 27232ft 479kts
10-Jul-20 16:24 42.731981 -122.179157 156 28797ft 476kts
10-Jul-20 16:25 42.617692 -122.089290 156 30251ft 474kts
10-Jul-20 16:26 42.503659 -121.999998 157 31537ft 471kts
10-Jul-20 16:27 42.390750 -121.911958 157 32712ft 468kts
10-Jul-20 16:28 42.277410 -121.824036 157 33177ft 470kts
10-Jul-20 16:29 42.165598 -121.731895 151 33180ft 478kts
10-Jul-20 16:30 42.065585 -121.611647 142 33180ft 487kts
10-Jul-20 16:31 41.969294 -121.483531 142 33180ft 486kts
10-Jul-20 16:32 41.877114 -121.361845 142 33181ft 485kts
10-Jul-20 16:33 41.782232 -121.237114 142 33180ft 485kts
10-Jul-20 16:34 41.686770 -121.112074 143 33180ft 487kts
10-Jul-20 16:35 41.589471 -120.985213 143 33179ft 484kts
10-Jul-20 16:36 41.492928 -120.859955 143 33180ft 483kts
10-Jul-20 16:37 41.396707 -120.735667 143 33180ft 483kts
10-Jul-20 16:38 41.299988 -120.611250 143 33180ft 483kts
10-Jul-20 16:39 41.203582 -120.487775 143 33180ft 483kts
10-Jul-20 16:40 41.106629 -120.363884 143 33181ft 483kts
10-Jul-20 16:41 41.013664 -120.245577 143 33181ft 477kts
10-Jul-20 16:42 40.918053 -120.124828 143 33180ft 474kts
10-Jul-20 16:43 40.823340 -120.022101 139 33178ft 478kts
10-Jul-20 16:44 40.772482 -119.855276 103 33183ft 507kts
10-Jul-20 16:45 40.727857 -119.685072 137 33180ft 479kts
10-Jul-20 16:46 40.618120 -119.606862 181 33200ft 439kts
10-Jul-20 16:47 40.500813 -119.629557 197 33211ft 427kts
10-Jul-20 16:48 40.385617 -119.664138 197 32779ft 420kts
10-Jul-20 16:49 40.271853 -119.698201 197 29604ft 425kts
10-Jul-20 16:50 40.155180 -119.733014 196 25709ft 440kts
10-Jul-20 16:51 40.036648 -119.756011 173 22944ft 437kts
10-Jul-20 16:52 39.928254 -119.689845 163 21221ft 408kts
10-Jul-20 16:53 39.827618 -119.676198 182 19652ft 375kts
10-Jul-20 16:54 39.727561 -119.673454 182 17202ft 343kts
10-Jul-20 16:55 39.636395 -119.666903 178 14746ft 318kts
10-Jul-20 16:56 39.550716 -119.658309 177 12293ft 302kts
10-Jul-20 16:57 39.471775 -119.653428 179 10753ft 264kts
10-Jul-20 16:58 39.403389 -119.648856 179 9657ft 228kts
10-Jul-20 16:59 39.362271 -119.685398 252 8865ft 199kts
10-Jul-20 17:00 39.369465 -119.750716 316 7675ft 198kts
10-Jul-20 17:01 39.420591 -119.768571 352 5915ft 182kts
10-Jul-20 17:02 39.466135 -119.768240 1 4855ft 152kts
10-Jul-20 17:03 39.502569 -119.766806 359 4418ft 73kts
10-Jul-20 17:04 39.510243 -119.768033 313 4418ft 2kts
10-Jul-20 17:05 39.509129 -119.770624 179 4418ft 14kts
10-Jul-20 17:06 39.505852 -119.772433 270 4418ft 15kts
10-Jul-20 17:07 39.505283 -119.773651 183 4418ft 0kts

Navigation Log

Ident Type
Flight plan parsing failed, navigation log unavailable